createdAt,value
2022-09-30T00:00:48.277Z,4.67
2022-09-30T00:03:18.440Z,5.13
2022-09-30T00:05:47.292Z,5.33
2022-09-30T00:08:15.951Z,5.10
2022-09-30T00:10:44.876Z,4.60
2022-09-30T00:13:13.630Z,5.00
2022-09-30T00:15:42.254Z,4.77
2022-09-30T00:18:10.978Z,5.40
2022-09-30T00:20:41.128Z,5.00
2022-09-30T00:23:09.835Z,4.70
2022-09-30T00:25:38.547Z,4.77
2022-09-30T00:28:08.067Z,4.80
2022-09-30T00:30:36.869Z,4.80
2022-09-30T00:33:05.649Z,4.37
2022-09-30T00:35:34.443Z,4.53
2022-09-30T00:38:04.608Z,4.57
2022-09-30T00:40:33.839Z,4.87
2022-09-30T00:43:02.506Z,5.03
2022-09-30T00:45:34.485Z,5.03
2022-09-30T00:48:10.986Z,4.40
2022-09-30T00:50:45.411Z,5.13
2022-09-30T00:53:21.586Z,4.20
2022-09-30T00:55:58.851Z,4.60
2022-09-30T00:58:35.148Z,4.27
2022-09-30T01:01:05.264Z,4.33
2022-09-30T01:03:37.954Z,4.47
2022-09-30T01:06:07.852Z,4.47
2022-09-30T01:08:41.611Z,4.33
2022-09-30T01:11:10.899Z,4.60
2022-09-30T01:13:42.944Z,4.87
2022-09-30T01:16:31.571Z,4.10
2022-09-30T01:19:37.053Z,4.17
2022-09-30T01:22:26.187Z,4.07
2022-09-30T01:25:45.765Z,4.20
2022-09-30T01:29:20.402Z,3.57
2022-09-30T01:32:03.873Z,3.73
2022-09-30T01:34:47.063Z,3.90
2022-09-30T01:37:33.278Z,3.83
2022-09-30T01:40:09.244Z,4.17
2022-09-30T01:42:49.640Z,4.13
2022-09-30T01:45:26.872Z,3.80
2022-09-30T01:48:04.711Z,3.70
2022-09-30T01:50:48.221Z,3.90
2022-09-30T01:53:26.304Z,3.73
2022-09-30T01:56:01.985Z,3.60
2022-09-30T01:58:41.963Z,4.33
2022-09-30T02:01:20.404Z,3.97
2022-09-30T02:03:57.047Z,3.70
2022-09-30T02:06:33.502Z,3.70
2022-09-30T02:09:08.580Z,3.60
2022-09-30T02:11:40.367Z,3.63
2022-09-30T02:14:18.199Z,3.80
2022-09-30T02:16:54.046Z,3.37
2022-09-30T02:19:32.081Z,3.90
2022-09-30T02:22:07.187Z,3.53
2022-09-30T02:24:38.255Z,3.63
2022-09-30T02:27:20.923Z,3.60
2022-09-30T02:29:57.042Z,4.10
2022-09-30T02:32:32.039Z,3.83
2022-09-30T02:35:10.317Z,3.90
2022-09-30T02:37:46.641Z,3.90
2022-09-30T02:40:25.694Z,3.70
2022-09-30T02:42:54.713Z,3.80
2022-09-30T02:45:25.715Z,3.77
2022-09-30T02:48:27.715Z,3.70
2022-09-30T02:51:06.181Z,4.10
2022-09-30T02:53:44.424Z,3.67
2022-09-30T02:56:27.221Z,3.90
2022-09-30T02:58:59.145Z,3.77
2022-09-30T03:01:27.963Z,3.97
2022-09-30T03:04:01.015Z,3.70
2022-09-30T03:06:32.229Z,3.80
2022-09-30T03:09:01.460Z,3.93
2022-09-30T03:11:32.237Z,3.87
2022-09-30T03:14:38.751Z,4.00
2022-09-30T03:17:39.018Z,4.20
2022-09-30T03:20:40.641Z,3.90
2022-09-30T03:23:43.022Z,4.10
2022-09-30T03:26:31.515Z,4.10
2022-09-30T03:29:14.699Z,3.90
2022-09-30T03:32:09.182Z,3.87
2022-09-30T03:34:57.882Z,3.97
2022-09-30T03:37:36.743Z,3.90
2022-09-30T03:40:18.867Z,4.00
2022-09-30T03:42:56.399Z,3.63
2022-09-30T03:45:35.214Z,3.60
2022-09-30T03:48:10.073Z,3.50
2022-09-30T03:50:42.462Z,3.90
2022-09-30T03:53:13.434Z,4.00
2022-09-30T03:55:50.339Z,3.80
2022-09-30T03:58:23.502Z,4.10
2022-09-30T04:00:57.233Z,4.00
2022-09-30T04:03:27.942Z,3.80
2022-09-30T04:05:57.288Z,3.60
2022-09-30T04:08:29.864Z,3.80
2022-09-30T04:11:03.510Z,3.67
2022-09-30T04:13:32.289Z,3.43
2022-09-30T04:16:01.722Z,3.50
2022-09-30T04:18:33.976Z,3.03
2022-09-30T04:21:07.364Z,3.60
2022-09-30T04:23:37.702Z,3.60
2022-09-30T04:26:13.425Z,3.77
2022-09-30T04:28:45.072Z,3.37
2022-09-30T04:31:17.328Z,3.70
2022-09-30T04:33:49.434Z,3.63
2022-09-30T04:36:20.313Z,4.30
2022-09-30T04:38:52.628Z,4.37
2022-09-30T04:41:22.859Z,5.03
2022-09-30T04:43:51.578Z,5.50
2022-09-30T04:46:22.712Z,5.50
2022-09-30T04:48:51.979Z,4.67
2022-09-30T04:51:22.707Z,5.17
2022-09-30T04:53:51.973Z,4.77
2022-09-30T04:56:22.975Z,4.40
2022-09-30T04:58:51.581Z,4.47
2022-09-30T05:01:21.296Z,4.53
2022-09-30T05:03:50.803Z,4.53
2022-09-30T05:06:19.739Z,4.20
2022-09-30T05:08:48.425Z,4.30
2022-09-30T05:11:19.257Z,4.53
2022-09-30T05:13:51.120Z,4.63
2022-09-30T05:16:20.179Z,4.83
2022-09-30T05:18:49.595Z,5.20
2022-09-30T05:21:20.912Z,5.13
2022-09-30T05:23:49.902Z,5.77
2022-09-30T05:26:18.574Z,6.17
2022-09-30T05:28:56.010Z,6.37
2022-09-30T05:31:24.662Z,6.30
2022-09-30T05:33:57.895Z,6.47
2022-09-30T05:36:27.050Z,6.60
2022-09-30T05:38:56.012Z,6.53
2022-09-30T05:41:24.776Z,6.40
2022-09-30T05:43:54.787Z,6.67
2022-09-30T05:46:23.474Z,5.87
2022-09-30T05:48:55.499Z,6.20
2022-09-30T05:51:24.532Z,5.97
2022-09-30T05:53:53.210Z,6.60
2022-09-30T05:56:23.851Z,5.90
2022-09-30T05:58:52.411Z,6.80
2022-09-30T06:01:23.506Z,6.73
2022-09-30T06:03:52.277Z,7.37
2022-09-30T06:06:21.321Z,6.93
2022-09-30T06:08:50.330Z,7.97
2022-09-30T06:11:25.115Z,8.00
2022-09-30T06:13:53.829Z,7.40
2022-09-30T06:16:25.243Z,5.60
2022-09-30T06:18:54.449Z,6.20
2022-09-30T06:21:23.620Z,6.53
2022-09-30T06:23:52.272Z,6.53
2022-09-30T06:26:20.955Z,6.47
2022-09-30T06:28:50.348Z,8.03
2022-09-30T06:31:19.349Z,8.37
2022-09-30T06:33:49.441Z,7.17
2022-09-30T06:36:18.524Z,7.10
2022-09-30T06:38:51.373Z,6.90
2022-09-30T06:41:20.000Z,7.10
2022-09-30T06:43:53.914Z,6.43
2022-09-30T06:46:30.847Z,6.60
2022-09-30T06:49:12.678Z,8.07
2022-09-30T06:51:42.299Z,13.93
2022-09-30T06:54:11.765Z,17.97
2022-09-30T06:56:40.663Z,19.77
2022-09-30T06:59:09.389Z,15.33
2022-09-30T07:01:38.992Z,10.17
2022-09-30T07:04:11.290Z,8.93
2022-09-30T07:06:41.625Z,8.93
2022-09-30T07:09:12.548Z,9.97
2022-09-30T07:11:41.300Z,10.23
2022-09-30T07:14:13.435Z,7.60
2022-09-30T07:16:42.166Z,9.10
2022-09-30T07:19:14.709Z,6.37
2022-09-30T07:21:43.355Z,5.90
2022-09-30T07:24:12.042Z,7.03
2022-09-30T07:26:40.938Z,5.80
2022-09-30T07:29:09.584Z,6.33
2022-09-30T07:31:38.298Z,7.20
2022-09-30T07:34:09.207Z,5.83
2022-09-30T07:36:41.829Z,5.00
2022-09-30T07:39:12.280Z,6.10
2022-09-30T07:41:42.029Z,6.67
2022-09-30T07:44:15.085Z,4.80
2022-09-30T07:46:46.048Z,5.90
2022-09-30T07:49:25.630Z,5.50
2022-09-30T07:51:58.912Z,4.93
2022-09-30T07:54:30.723Z,5.53
2022-09-30T07:57:10.468Z,5.13
2022-09-30T07:59:42.366Z,4.77
2022-09-30T08:02:17.448Z,4.47
2022-09-30T08:04:47.182Z,4.40
2022-09-30T08:07:19.594Z,4.63
2022-09-30T08:09:48.386Z,5.07
2022-09-30T08:12:17.182Z,4.20
2022-09-30T08:14:46.256Z,4.57
2022-09-30T08:17:15.564Z,4.47
2022-09-30T08:19:44.987Z,3.93
2022-09-30T08:22:14.236Z,3.60
2022-09-30T08:24:44.426Z,3.77
2022-09-30T08:27:13.152Z,3.83
2022-09-30T08:30:00.134Z,3.90
2022-09-30T08:32:32.023Z,3.77
2022-09-30T08:35:00.987Z,3.50
2022-09-30T08:37:29.692Z,3.60
2022-09-30T08:39:59.669Z,3.30
2022-09-30T08:42:52.974Z,3.33
2022-09-30T08:45:38.716Z,3.60
2022-09-30T08:48:28.893Z,3.10
2022-09-30T08:51:13.394Z,2.80
2022-09-30T08:53:48.179Z,2.70
2022-09-30T08:56:25.247Z,2.00
2022-09-30T08:58:59.936Z,2.30
2022-09-30T09:01:35.269Z,2.00
2022-09-30T09:04:07.815Z,2.00
2022-09-30T09:06:55.085Z,1.97
2022-09-30T09:10:01.887Z,2.03
2022-09-30T09:12:48.228Z,2.40
2022-09-30T09:15:32.065Z,1.70
2022-09-30T09:18:43.284Z,2.10
2022-09-30T09:21:25.177Z,1.63
2022-09-30T09:23:58.806Z,1.70
2022-09-30T09:26:32.123Z,1.70
2022-09-30T09:29:29.045Z,1.50
2022-09-30T09:31:59.763Z,1.53
2022-09-30T09:34:30.425Z,5.07
2022-09-30T09:37:16.491Z,1.63
2022-09-30T09:40:11.903Z,18.20
2022-09-30T09:43:06.457Z,2.37
2022-09-30T09:45:43.552Z,1.80
2022-09-30T09:48:17.562Z,1.90
2022-09-30T09:51:01.479Z,2.10
2022-09-30T09:53:46.507Z,1.90
2022-09-30T09:56:22.076Z,1.80
2022-09-30T09:59:13.814Z,1.90
2022-09-30T10:01:48.098Z,2.00
2022-09-30T10:04:24.450Z,1.50
2022-09-30T10:07:00.143Z,2.20
2022-09-30T10:09:33.555Z,1.87
2022-09-30T10:12:54.181Z,1.70
2022-09-30T10:15:26.527Z,1.47
2022-09-30T10:18:00.950Z,1.30
2022-09-30T10:20:38.278Z,1.27
2022-09-30T10:23:20.321Z,1.40
2022-09-30T10:26:20.486Z,1.40
2022-09-30T10:28:53.271Z,1.17
2022-09-30T10:31:32.221Z,1.40
2022-09-30T10:34:13.274Z,2.00
2022-09-30T10:36:44.885Z,1.53
2022-09-30T10:39:25.056Z,1.40
2022-09-30T10:42:03.628Z,1.40
2022-09-30T10:44:46.184Z,1.30
2022-09-30T10:47:19.475Z,1.33
2022-09-30T10:49:54.495Z,1.57
2022-09-30T10:52:27.705Z,1.20
2022-09-30T10:54:58.883Z,1.90
2022-09-30T10:57:31.010Z,1.63
2022-09-30T11:00:06.959Z,1.50
2022-09-30T11:02:58.777Z,1.67
2022-09-30T11:05:33.242Z,1.40
2022-09-30T11:08:14.632Z,1.90
2022-09-30T11:10:55.011Z,1.60
2022-09-30T11:13:36.948Z,1.60
2022-09-30T11:16:21.112Z,2.37
2022-09-30T11:18:57.419Z,1.80
2022-09-30T11:21:33.110Z,1.80
2022-09-30T11:24:21.566Z,1.90
2022-09-30T11:27:04.458Z,2.30
2022-09-30T11:30:00.963Z,1.80
2022-09-30T11:32:52.227Z,1.50
2022-09-30T11:39:59.331Z,1.90
2022-09-30T11:42:41.299Z,2.10
2022-09-30T11:45:30.858Z,1.80
2022-09-30T11:48:40.475Z,2.00
2022-09-30T11:51:24.874Z,1.60
2022-09-30T11:54:08.018Z,1.50
2022-09-30T11:56:50.944Z,2.07
2022-09-30T11:59:28.033Z,1.80
2022-09-30T12:02:03.087Z,1.70
2022-09-30T12:04:40.727Z,1.80
2022-09-30T12:07:19.340Z,2.83
2022-09-30T12:09:54.725Z,2.10
2022-09-30T12:12:25.154Z,1.80
2022-09-30T12:14:59.112Z,1.63
2022-09-30T12:17:38.787Z,1.90
2022-09-30T12:20:18.054Z,1.50
2022-09-30T12:22:49.468Z,1.80
2022-09-30T12:25:24.123Z,1.70
2022-09-30T12:28:27.753Z,1.57
2022-09-30T12:31:24.150Z,1.93
2022-09-30T12:34:13.201Z,1.93
2022-09-30T12:37:24.644Z,1.70
2022-09-30T12:40:24.480Z,2.10
2022-09-30T12:43:39.491Z,1.80
2022-09-30T12:46:43.965Z,1.70
2022-09-30T12:49:20.116Z,2.00
2022-09-30T12:51:56.047Z,2.10
2022-09-30T12:54:32.398Z,1.90
2022-09-30T12:57:09.395Z,2.30
2022-09-30T12:59:55.773Z,2.10
2022-09-30T13:02:38.704Z,2.00
2022-09-30T13:05:48.467Z,2.00
2022-09-30T13:08:46.504Z,2.10
2022-09-30T13:11:42.425Z,2.07
2022-09-30T13:14:33.180Z,1.93
2022-09-30T13:17:27.062Z,2.23
2022-09-30T13:19:58.792Z,2.00
2022-09-30T13:22:58.449Z,2.03
2022-09-30T13:25:28.842Z,2.00
2022-09-30T13:28:30.829Z,1.80
2022-09-30T13:31:19.940Z,2.00
2022-09-30T13:34:12.363Z,2.20
2022-09-30T13:36:43.698Z,2.20
2022-09-30T13:39:27.318Z,3.23
2022-09-30T13:42:10.063Z,2.27
2022-09-30T13:45:01.206Z,1.80
2022-09-30T13:47:39.150Z,2.30
2022-09-30T13:50:20.909Z,2.03
2022-09-30T13:52:55.844Z,1.97
2022-09-30T13:55:35.147Z,2.00
2022-09-30T13:58:32.165Z,1.90
2022-09-30T14:01:45.123Z,2.03
2022-09-30T14:04:51.973Z,2.10
2022-09-30T14:07:42.401Z,2.10
2022-09-30T14:10:35.807Z,1.97
2022-09-30T14:13:34.077Z,1.80
2022-09-30T14:16:58.326Z,1.63
2022-09-30T14:20:05.506Z,1.80
2022-09-30T14:22:43.341Z,1.83
2022-09-30T14:25:19.225Z,1.80
2022-09-30T14:28:09.656Z,1.80
2022-09-30T14:31:03.182Z,1.73
2022-09-30T14:33:34.487Z,2.00
2022-09-30T14:36:09.480Z,1.67
2022-09-30T14:38:41.147Z,1.73
2022-09-30T14:41:21.375Z,1.80
2022-09-30T14:43:57.996Z,2.00
2022-09-30T14:46:36.974Z,1.80
2022-09-30T14:49:10.253Z,1.90
2022-09-30T14:51:43.767Z,1.93
2022-09-30T14:54:23.922Z,2.00
2022-09-30T14:56:54.801Z,1.80
2022-09-30T14:59:27.296Z,2.10
2022-09-30T15:02:00.834Z,2.20
2022-09-30T15:04:32.559Z,2.00
2022-09-30T15:07:04.530Z,2.30
2022-09-30T15:09:37.845Z,2.40
2022-09-30T15:12:08.732Z,2.30
2022-09-30T15:14:48.502Z,2.70
2022-09-30T15:17:21.747Z,2.90
2022-09-30T15:19:50.937Z,2.90
2022-09-30T15:22:22.024Z,2.87
2022-09-30T15:24:54.449Z,3.10
2022-09-30T15:27:28.378Z,3.00
2022-09-30T15:29:57.860Z,2.87
2022-09-30T15:32:30.573Z,3.80
2022-09-30T15:35:00.100Z,3.40
2022-09-30T15:37:33.800Z,2.87
2022-09-30T15:40:23.138Z,3.43
2022-09-30T15:43:01.391Z,4.40
2022-09-30T15:45:35.807Z,5.03
2022-09-30T15:48:08.889Z,4.17
2022-09-30T15:50:43.729Z,4.70
2022-09-30T15:53:24.906Z,5.63
2022-09-30T15:55:57.590Z,4.80
2022-09-30T15:58:39.063Z,3.40
2022-09-30T16:01:21.498Z,3.30
2022-09-30T16:03:55.682Z,3.53
2022-09-30T16:06:35.370Z,4.67
2022-09-30T16:09:09.523Z,4.60
2022-09-30T16:11:44.567Z,4.77
2022-09-30T16:14:26.997Z,5.07
2022-09-30T16:17:00.474Z,9.43
2022-09-30T16:19:32.534Z,10.03
2022-09-30T16:22:01.945Z,5.63
2022-09-30T16:24:50.503Z,4.20
2022-09-30T16:27:32.854Z,4.80
2022-09-30T16:30:02.870Z,4.03
2022-09-30T16:32:41.451Z,5.07
2022-09-30T16:35:19.701Z,4.10
2022-09-30T16:37:49.648Z,4.23
2022-09-30T16:40:24.384Z,4.40
2022-09-30T16:42:56.014Z,4.53
2022-09-30T16:45:24.972Z,4.30
2022-09-30T16:47:54.045Z,4.57
2022-09-30T16:50:32.567Z,3.87
2022-09-30T16:53:01.534Z,5.20
2022-09-30T16:55:31.528Z,4.80
2022-09-30T16:58:04.692Z,9.87
2022-09-30T17:00:33.907Z,4.73
2022-09-30T17:03:02.616Z,10.20
2022-09-30T17:05:31.414Z,7.00
2022-09-30T17:08:01.433Z,11.47
2022-09-30T17:10:35.278Z,6.00
2022-09-30T17:13:06.207Z,9.70
2022-09-30T17:15:36.251Z,5.93
2022-09-30T17:18:09.393Z,4.97
2022-09-30T17:20:43.198Z,6.10
2022-09-30T17:23:13.350Z,4.83
2022-09-30T17:25:43.086Z,7.23
2022-09-30T17:28:14.803Z,5.70
2022-09-30T17:30:46.650Z,6.00
2022-09-30T17:33:15.822Z,5.40
2022-09-30T17:35:44.517Z,5.40
2022-09-30T17:38:14.691Z,5.53
2022-09-30T17:41:00.427Z,7.27
2022-09-30T17:43:31.674Z,10.27
2022-09-30T17:46:01.179Z,14.33
2022-09-30T17:48:30.041Z,15.40
2022-09-30T17:51:00.106Z,11.03
2022-09-30T17:53:29.461Z,12.83
2022-09-30T17:56:06.763Z,11.77
2022-09-30T17:58:37.238Z,15.47
2022-09-30T18:01:08.480Z,12.30
2022-09-30T18:03:37.716Z,12.40
2022-09-30T18:06:06.719Z,16.13
2022-09-30T18:08:36.045Z,13.67
2022-09-30T18:11:07.540Z,12.63
2022-09-30T18:13:37.838Z,13.40
2022-09-30T18:16:08.405Z,12.00
2022-09-30T18:18:37.397Z,10.50
2022-09-30T18:21:06.576Z,9.73
2022-09-30T18:23:35.352Z,10.07
2022-09-30T18:26:04.400Z,12.00
2022-09-30T18:28:33.301Z,8.90
2022-09-30T18:31:09.834Z,9.27
2022-09-30T18:33:39.643Z,9.30
2022-09-30T18:36:10.463Z,8.63
2022-09-30T18:38:42.237Z,8.77
2022-09-30T18:41:12.835Z,8.80
2022-09-30T18:43:45.399Z,7.50
2022-09-30T18:46:16.458Z,6.50
2022-09-30T18:48:50.456Z,6.53
2022-09-30T18:51:20.425Z,6.47
2022-09-30T18:53:56.244Z,6.40
2022-09-30T18:56:27.623Z,6.53
2022-09-30T18:58:58.150Z,6.20
2022-09-30T19:01:29.117Z,5.80
2022-09-30T19:04:01.365Z,5.73
2022-09-30T19:06:33.829Z,5.67
2022-09-30T19:09:03.073Z,6.13
2022-09-30T19:11:33.566Z,5.93
2022-09-30T19:14:03.870Z,5.80
2022-09-30T19:16:38.618Z,6.10
2022-09-30T19:19:11.675Z,7.80
2022-09-30T19:21:41.328Z,9.80
2022-09-30T19:24:11.898Z,14.23
2022-09-30T19:26:41.070Z,14.70
2022-09-30T19:29:12.137Z,11.90
2022-09-30T19:31:46.941Z,9.30
2022-09-30T19:34:27.598Z,8.33
2022-09-30T19:37:00.088Z,8.50
2022-09-30T19:39:44.011Z,8.27
2022-09-30T19:42:19.401Z,8.10
2022-09-30T19:44:52.100Z,8.47
2022-09-30T19:47:22.924Z,8.40
2022-09-30T19:49:52.218Z,8.40
2022-09-30T19:52:22.422Z,8.70
2022-09-30T19:55:03.879Z,8.33
2022-09-30T19:57:37.689Z,8.33
2022-09-30T20:00:09.050Z,8.43
2022-09-30T20:02:40.319Z,7.50
2022-09-30T20:05:10.747Z,7.00
2022-09-30T20:07:40.315Z,7.23
2022-09-30T20:10:10.758Z,6.47
2022-09-30T20:12:41.198Z,6.00
2022-09-30T20:15:29.838Z,6.23
2022-09-30T20:18:00.116Z,6.47
2022-09-30T20:20:38.520Z,6.37
2022-09-30T20:23:08.445Z,5.90
2022-09-30T20:25:44.387Z,5.53
2022-09-30T20:28:13.831Z,5.50
2022-09-30T20:30:50.652Z,5.90
2022-09-30T20:33:24.766Z,5.60
2022-09-30T20:35:54.100Z,6.13
2022-09-30T20:38:25.581Z,7.90
2022-09-30T20:40:58.797Z,8.03
2022-09-30T20:43:30.159Z,11.20
2022-09-30T20:46:02.263Z,12.47
2022-09-30T20:48:36.212Z,8.20
2022-09-30T20:51:07.246Z,7.60
2022-09-30T20:53:39.807Z,8.30
2022-09-30T20:56:10.857Z,8.07
2022-09-30T20:58:42.324Z,9.23
2022-09-30T21:01:14.173Z,9.70
2022-09-30T21:03:48.256Z,9.43
2022-09-30T21:06:18.332Z,9.30
2022-09-30T21:08:47.829Z,8.40
2022-09-30T21:11:16.959Z,8.27
2022-09-30T21:13:47.457Z,8.73
2022-09-30T21:16:20.624Z,8.00
2022-09-30T21:18:52.663Z,7.90
2022-09-30T21:21:24.925Z,6.73
2022-09-30T21:23:57.577Z,7.53
2022-09-30T21:26:26.773Z,7.10
2022-09-30T21:28:57.434Z,6.47
2022-09-30T21:31:28.052Z,6.90
2022-09-30T21:33:59.985Z,6.70
2022-09-30T21:36:32.375Z,6.30
2022-09-30T21:39:04.495Z,6.57
2022-09-30T21:41:34.573Z,6.23
2022-09-30T21:44:04.471Z,6.17
2022-09-30T21:46:34.825Z,5.43
2022-09-30T21:49:16.609Z,5.70
2022-09-30T21:51:45.848Z,6.73
2022-09-30T21:54:15.115Z,5.70
2022-09-30T21:56:48.640Z,5.47
2022-09-30T21:59:18.006Z,5.97
2022-09-30T22:01:47.909Z,6.73
2022-09-30T22:04:19.655Z,5.47
2022-09-30T22:06:53.257Z,5.27
2022-09-30T22:09:22.275Z,5.07
2022-09-30T22:11:55.036Z,4.77
2022-09-30T22:14:23.738Z,5.23
2022-09-30T22:16:55.901Z,4.50
2022-09-30T22:19:26.104Z,4.10
2022-09-30T22:21:54.926Z,4.70
2022-09-30T22:24:24.090Z,4.90
2022-09-30T22:26:53.027Z,5.27
2022-09-30T22:29:21.873Z,5.17
2022-09-30T22:31:50.647Z,5.20
2022-09-30T22:34:37.232Z,4.77
2022-09-30T22:37:24.772Z,4.87
2022-09-30T22:39:56.282Z,5.40
2022-09-30T22:42:29.314Z,5.00
2022-09-30T22:44:58.170Z,4.90
2022-09-30T22:47:26.882Z,5.13
2022-09-30T22:49:55.545Z,4.93
2022-09-30T22:52:25.551Z,5.27
2022-09-30T22:54:54.361Z,5.27
2022-09-30T22:57:23.003Z,4.50
2022-09-30T22:59:52.939Z,4.93
2022-09-30T23:02:22.754Z,4.33
2022-09-30T23:04:51.718Z,4.17
2022-09-30T23:07:20.334Z,4.20
2022-09-30T23:09:50.417Z,4.00
2022-09-30T23:12:19.090Z,4.13
2022-09-30T23:14:47.750Z,4.10
2022-09-30T23:17:16.327Z,4.17
2022-09-30T23:19:44.948Z,3.80
2022-09-30T23:22:13.671Z,4.00
2022-09-30T23:24:42.323Z,3.70
2022-09-30T23:27:12.367Z,3.60
2022-09-30T23:29:41.005Z,3.77
2022-09-30T23:32:09.827Z,3.80
2022-09-30T23:34:38.549Z,3.53
2022-09-30T23:37:07.159Z,3.70
2022-09-30T23:39:35.771Z,3.30
2022-09-30T23:42:04.582Z,3.70
2022-09-30T23:44:34.686Z,3.73
2022-09-30T23:47:22.194Z,3.63
2022-09-30T23:49:51.072Z,3.90
2022-09-30T23:52:19.742Z,3.97
2022-09-30T23:54:48.330Z,3.30
2022-09-30T23:57:17.001Z,3.20
2022-09-30T23:59:47.076Z,3.67
